Main page
METAR-TAF:

METAR-TAF

Airports :

Wellington International Airport

Wellington, New Zealand

latitude: 41-20S, longitude: 174-48E, elevation: 12 m

Current weather observation

The report was made 24 minutes ago, at 23:00 UTC
Wind 17 kt from the North
Temperature 22°C
Humidity 53%
Pressure 1010 hPa
Visibility 10 km or more

METAR: NZWN 212300Z AUTO 01017KT 9999 NCD 22/12 Q1010 NOSIG

Time: 12:24 (23:24 UTC)

Forecast

The report was made 6 hours and 22 minutes ago, at 17:02 UTC
Forecast valid from 21 at 18 UTC to 22 at 18 UTC
Wind 12 kt from the North/Northwest
Visibility 10 km or more
Few clouds at a height of 3000 ft
Becoming
from 22 at 00 UTC to 22 at 02 UTC
Wind 18 kt from the North/Northwest with gusts up to 30 kt

TAF: NZWN 211702Z 2118/2218 34012KT 9999 FEW030 BECMG 2200/2202 34018G30KT

Weather observations and forecasts of more than 4000 airports (METAR and TAF reports).

The available stations are represented by yellow and red dots on the map.

Hover mouse over dot to see the name of the station.

Then click to see weather observations and forecasts.

To change the map : click on the green buttons with a black cross to zoom in, on the green button with a dash to zoom out, or on the green arrows for adjacent maps.


METAR-TAF: